createdAt,value
2022-10-18T00:01:06.614Z,15.10
2022-10-18T00:03:40.642Z,13.73
2022-10-18T00:06:09.359Z,15.10
2022-10-18T00:08:37.749Z,19.90
2022-10-18T00:11:05.685Z,19.92
2022-10-18T00:13:32.590Z,20.05
2022-10-18T00:16:02.349Z,14.82
2022-10-18T00:18:29.262Z,18.35
2022-10-18T00:21:09.674Z,21.13
2022-10-18T00:23:37.160Z,15.48
2022-10-18T00:26:06.019Z,20.80
2022-10-18T00:28:34.742Z,17.67
2022-10-18T00:31:11.276Z,20.33
2022-10-18T00:33:38.387Z,23.33
2022-10-18T00:36:05.709Z,16.15
2022-10-18T00:38:32.702Z,17.48
2022-10-18T00:40:59.840Z,19.23
2022-10-18T00:43:29.413Z,17.92
2022-10-18T00:45:56.435Z,16.05
2022-10-18T00:48:25.934Z,18.63
2022-10-18T00:50:55.497Z,14.68
2022-10-18T00:53:23.722Z,17.95
2022-10-18T00:55:51.120Z,19.52
2022-10-18T00:58:19.990Z,17.63
2022-10-18T01:00:47.467Z,13.85
2022-10-18T01:03:14.391Z,21.58
2022-10-18T01:05:46.716Z,15.05
2022-10-18T01:08:24.718Z,16.73
2022-10-18T01:11:00.789Z,14.00
2022-10-18T01:13:46.555Z,14.85
2022-10-18T01:16:47.764Z,18.65
2022-10-18T01:19:26.408Z,20.42
2022-10-18T01:22:05.836Z,18.70
2022-10-18T01:24:58.286Z,19.00
2022-10-18T01:27:46.714Z,18.25
2022-10-18T01:30:36.545Z,16.70
2022-10-18T01:33:09.516Z,18.00
2022-10-18T01:35:42.209Z,18.65
2022-10-18T01:38:14.182Z,16.85
2022-10-18T01:40:43.945Z,16.77
2022-10-18T01:43:12.729Z,18.15
2022-10-18T01:45:41.481Z,14.65
2022-10-18T01:48:10.429Z,16.00
2022-10-18T01:50:37.366Z,20.40
2022-10-18T01:53:04.431Z,15.23
2022-10-18T01:55:31.239Z,14.82
2022-10-18T01:58:10.314Z,18.98
2022-10-18T02:00:44.787Z,16.83
2022-10-18T02:03:26.008Z,18.52
2022-10-18T02:06:01.920Z,14.77
2022-10-18T02:08:32.361Z,18.33
2022-10-18T02:11:05.437Z,15.30
2022-10-18T02:13:37.343Z,15.80
2022-10-18T02:16:13.460Z,16.30
2022-10-18T02:18:46.226Z,16.42
2022-10-18T02:21:19.582Z,19.70
2022-10-18T02:23:47.838Z,15.73
2022-10-18T02:26:16.307Z,16.63
2022-10-18T02:28:44.120Z,15.43
2022-10-18T02:31:15.334Z,16.45
2022-10-18T02:33:51.816Z,17.10
2022-10-18T02:36:25.637Z,20.33
2022-10-18T02:38:57.725Z,17.23
2022-10-18T02:41:28.303Z,16.48
2022-10-18T02:43:55.359Z,15.55
2022-10-18T02:46:22.540Z,16.73
2022-10-18T02:48:49.984Z,13.73
2022-10-18T02:51:17.158Z,15.35
2022-10-18T02:53:46.384Z,15.05
2022-10-18T02:56:13.305Z,15.38
2022-10-18T02:58:40.384Z,15.38
2022-10-18T03:01:07.437Z,19.65
2022-10-18T03:03:34.590Z,15.63
2022-10-18T03:06:04.034Z,17.67
2022-10-18T03:08:31.163Z,18.80
2022-10-18T03:10:58.036Z,18.48
2022-10-18T03:13:25.266Z,15.23
2022-10-18T03:15:52.210Z,15.90
2022-10-18T03:18:19.283Z,15.55
2022-10-18T03:20:48.380Z,17.98
2022-10-18T03:23:15.498Z,18.92
2022-10-18T03:25:45.619Z,20.98
2022-10-18T03:28:13.541Z,19.52
2022-10-18T03:30:40.432Z,15.50
2022-10-18T03:33:07.510Z,14.60
2022-10-18T03:35:34.529Z,16.80
2022-10-18T03:38:02.055Z,17.35
2022-10-18T03:40:34.118Z,16.27
2022-10-18T03:43:01.503Z,13.77
2022-10-18T03:45:31.215Z,18.38
2022-10-18T03:47:58.856Z,18.02
2022-10-18T03:50:25.730Z,20.60
2022-10-18T03:52:54.635Z,15.55
2022-10-18T03:55:24.190Z,16.00
2022-10-18T03:57:51.266Z,20.52
2022-10-18T04:00:18.195Z,18.40
2022-10-18T04:02:45.286Z,21.63
2022-10-18T04:05:13.056Z,15.05
2022-10-18T04:07:40.410Z,15.40
2022-10-18T04:10:08.087Z,14.55
2022-10-18T04:12:35.224Z,16.75
2022-10-18T04:15:02.863Z,15.35
2022-10-18T04:17:30.218Z,17.63
2022-10-18T04:19:57.410Z,16.02
2022-10-18T04:22:24.521Z,18.45
2022-10-18T04:24:53.387Z,18.02
2022-10-18T04:27:20.551Z,18.30
2022-10-18T04:29:47.465Z,17.05
2022-10-18T04:32:17.030Z,14.82
2022-10-18T04:37:16.178Z,16.42
2022-10-18T04:39:49.882Z,16.20
2022-10-18T04:42:19.953Z,18.48
2022-10-18T04:44:46.902Z,15.50
2022-10-18T04:47:14.159Z,16.77
2022-10-18T04:49:41.286Z,15.68
2022-10-18T04:52:08.827Z,21.42
2022-10-18T04:54:36.498Z,18.70
2022-10-18T04:57:06.238Z,23.35
2022-10-18T04:59:33.212Z,19.95
2022-10-18T05:02:00.567Z,23.17
2022-10-18T05:04:27.578Z,21.00
2022-10-18T05:06:56.972Z,23.83
2022-10-18T05:09:24.920Z,24.00
2022-10-18T05:11:52.303Z,24.92
2022-10-18T05:14:21.844Z,20.52
2022-10-18T05:16:48.936Z,18.00
2022-10-18T05:19:16.036Z,21.75
2022-10-18T05:21:43.151Z,19.42
2022-10-18T05:24:13.301Z,20.20
2022-10-18T05:26:40.497Z,21.85
2022-10-18T05:29:07.416Z,20.63
2022-10-18T05:31:34.710Z,23.10
2022-10-18T05:34:02.317Z,23.38
2022-10-18T05:36:29.436Z,22.65
2022-10-18T05:39:05.099Z,24.13
2022-10-18T05:41:32.632Z,21.25
2022-10-18T05:44:06.212Z,21.45
2022-10-18T05:46:33.674Z,23.15
2022-10-18T05:49:00.792Z,19.42
2022-10-18T05:51:27.937Z,20.20
2022-10-18T05:53:55.116Z,20.88
2022-10-18T05:56:24.886Z,21.95
2022-10-18T05:58:52.256Z,19.67
2022-10-18T06:01:19.883Z,21.83
2022-10-18T06:03:50.143Z,23.15
2022-10-18T06:06:17.294Z,26.13
2022-10-18T06:08:44.707Z,20.50
2022-10-18T06:11:19.702Z,22.55
2022-10-18T06:13:48.927Z,27.50
2022-10-18T06:16:19.318Z,27.13
2022-10-18T06:18:55.108Z,19.90
2022-10-18T06:21:24.451Z,22.85
2022-10-18T06:23:53.686Z,16.85
2022-10-18T06:26:22.068Z,22.52
2022-10-18T06:28:49.079Z,20.73
2022-10-18T06:31:16.900Z,17.48
2022-10-18T06:33:45.678Z,18.08
2022-10-18T06:36:18.537Z,20.75
2022-10-18T06:38:46.072Z,23.67
2022-10-18T06:41:13.822Z,22.30
2022-10-18T06:43:40.751Z,16.70
2022-10-18T06:46:10.260Z,14.82
2022-10-18T06:48:39.749Z,20.33
2022-10-18T06:51:08.212Z,22.25
2022-10-18T06:53:43.851Z,15.38
2022-10-18T06:56:22.935Z,10.75
2022-10-18T06:58:49.934Z,17.63
2022-10-18T07:01:20.812Z,14.00
2022-10-18T07:03:48.963Z,16.60
2022-10-18T07:06:19.245Z,10.88
2022-10-18T07:08:47.959Z,16.02
2022-10-18T07:11:21.236Z,12.52
2022-10-18T07:13:48.191Z,15.15
2022-10-18T07:16:18.718Z,12.73
2022-10-18T07:18:50.280Z,17.27
2022-10-18T07:21:21.041Z,14.38
2022-10-18T07:23:49.387Z,13.07
2022-10-18T07:26:30.646Z,17.15
2022-10-18T07:29:06.971Z,15.10
2022-10-18T07:31:35.755Z,14.75
2022-10-18T07:34:04.858Z,11.80
2022-10-18T07:36:35.151Z,15.52
2022-10-18T07:39:02.406Z,14.35
2022-10-18T07:41:33.885Z,10.70
2022-10-18T07:44:01.814Z,16.15
2022-10-18T07:46:29.352Z,16.27
2022-10-18T07:48:58.404Z,19.00
2022-10-18T07:51:26.934Z,12.50
2022-10-18T07:53:54.185Z,22.80
2022-10-18T07:56:23.659Z,17.77
2022-10-18T07:58:52.676Z,11.88
2022-10-18T08:01:21.715Z,17.40
2022-10-18T08:03:49.118Z,16.98
2022-10-18T08:06:18.636Z,13.32
2022-10-18T08:08:46.271Z,18.20
2022-10-18T08:11:18.802Z,16.92
2022-10-18T08:13:46.131Z,18.90
2022-10-18T08:16:16.431Z,13.85
2022-10-18T08:18:43.799Z,14.73
2022-10-18T08:21:13.063Z,11.98
2022-10-18T08:23:40.639Z,11.63
2022-10-18T08:26:13.794Z,17.95
2022-10-18T08:28:53.519Z,15.45
2022-10-18T08:31:31.160Z,17.20
2022-10-18T08:33:58.212Z,16.08
2022-10-18T08:36:25.766Z,17.27
2022-10-18T08:38:52.816Z,17.98
2022-10-18T08:41:29.985Z,16.27
2022-10-18T08:44:24.075Z,18.15
2022-10-18T08:47:11.575Z,16.08
2022-10-18T08:49:46.926Z,17.00
2022-10-18T08:52:35.709Z,21.02
2022-10-18T08:55:36.623Z,22.30
2022-10-18T08:58:16.046Z,18.15
2022-10-18T09:00:50.673Z,15.20
2022-10-18T09:03:20.935Z,15.98
2022-10-18T09:06:23.469Z,15.32
2022-10-18T09:08:57.093Z,13.05
2022-10-18T09:11:41.270Z,20.77
2022-10-18T09:14:42.687Z,15.63
2022-10-18T09:17:32.909Z,18.75
2022-10-18T09:20:12.168Z,16.38
2022-10-18T09:22:57.304Z,14.80
2022-10-18T09:25:47.479Z,21.20
2022-10-18T09:28:42.999Z,17.02
2022-10-18T09:31:22.658Z,20.80
2022-10-18T09:34:05.410Z,21.13
2022-10-18T09:36:38.685Z,15.00
2022-10-18T09:39:12.329Z,17.35
2022-10-18T09:41:45.103Z,22.38
2022-10-18T09:44:20.297Z,17.48
2022-10-18T09:46:53.085Z,21.00
2022-10-18T09:49:27.058Z,18.60
2022-10-18T09:51:54.484Z,17.00
2022-10-18T09:55:02.864Z,20.40
2022-10-18T09:57:42.653Z,17.13
2022-10-18T10:00:18.793Z,17.65
2022-10-18T10:02:46.083Z,16.48
2022-10-18T10:05:16.638Z,29.65
2022-10-18T10:07:49.630Z,17.25
2022-10-18T10:10:21.816Z,20.25
2022-10-18T10:13:02.218Z,19.52
2022-10-18T10:15:33.170Z,15.93
2022-10-18T10:18:22.215Z,12.60
2022-10-18T10:20:55.959Z,25.20
2022-10-18T10:23:30.628Z,24.10
2022-10-18T10:26:02.222Z,19.38
2022-10-18T10:28:33.435Z,15.55
2022-10-18T10:31:30.820Z,13.70
2022-10-18T10:34:05.458Z,18.63
2022-10-18T10:36:48.647Z,20.30
2022-10-18T10:39:19.541Z,23.25
2022-10-18T10:41:54.141Z,15.88
2022-10-18T10:44:28.640Z,17.17
2022-10-18T10:46:56.965Z,27.02
2022-10-18T10:49:47.850Z,21.95
2022-10-18T10:52:28.569Z,19.73
2022-10-18T10:57:50.707Z,17.05
2022-10-18T11:00:38.542Z,14.13
2022-10-18T11:03:27.954Z,16.75
2022-10-18T11:06:01.001Z,16.67
2022-10-18T11:08:35.881Z,15.30
2022-10-18T11:11:28.049Z,17.27
2022-10-18T11:14:27.092Z,27.20
2022-10-18T11:17:13.396Z,16.35
2022-10-18T11:20:01.391Z,13.65
2022-10-18T11:22:38.539Z,18.10
2022-10-18T11:25:06.092Z,16.88
2022-10-18T11:27:40.436Z,12.85
2022-10-18T11:30:45.210Z,17.67
2022-10-18T11:33:33.629Z,36.15
2022-10-18T11:36:35.221Z,18.58
2022-10-18T11:39:33.949Z,19.95
2022-10-18T11:42:28.580Z,23.52
2022-10-18T11:45:08.429Z,19.05
2022-10-18T11:47:53.674Z,25.35
2022-10-18T11:50:50.951Z,21.50
2022-10-18T11:53:41.979Z,19.00
2022-10-18T11:56:18.145Z,19.33
2022-10-18T11:58:51.365Z,18.88
2022-10-18T12:01:30.991Z,21.60
2022-10-18T12:04:21.748Z,24.58
2022-10-18T12:06:52.302Z,18.15
2022-10-18T12:09:25.229Z,23.75
2022-10-18T12:12:29.059Z,24.15
2022-10-18T12:15:02.009Z,28.35
2022-10-18T12:17:47.458Z,25.27
2022-10-18T12:20:39.852Z,20.08
2022-10-18T12:23:21.970Z,25.13
2022-10-18T12:25:55.487Z,28.50
2022-10-18T12:28:41.608Z,19.30
2022-10-18T12:31:43.598Z,46.03
2022-10-18T12:34:16.730Z,21.92
2022-10-18T12:37:09.434Z,23.65
2022-10-18T12:40:08.694Z,22.95
2022-10-18T12:42:41.192Z,19.77
2022-10-18T12:45:33.082Z,25.13
2022-10-18T12:48:06.936Z,18.48
2022-10-18T12:50:40.573Z,21.92
2022-10-18T12:53:10.552Z,25.25
2022-10-18T12:55:44.873Z,19.67
2022-10-18T12:58:14.902Z,22.13
2022-10-18T13:00:41.970Z,19.88
2022-10-18T13:03:12.058Z,20.70
2022-10-18T13:05:55.544Z,20.13
2022-10-18T13:08:29.334Z,23.02
2022-10-18T13:11:08.896Z,20.38
2022-10-18T13:13:48.308Z,21.42
2022-10-18T13:16:36.439Z,20.73
2022-10-18T13:19:21.672Z,22.17
2022-10-18T13:22:12.639Z,22.20
2022-10-18T13:24:54.415Z,24.08
2022-10-18T13:27:36.371Z,24.27
2022-10-18T13:30:18.861Z,27.05
2022-10-18T13:33:10.362Z,27.77
2022-10-18T13:35:55.114Z,39.70
2022-10-18T13:38:31.647Z,50.67
2022-10-18T13:41:09.879Z,35.63
2022-10-18T13:43:52.849Z,23.80
2022-10-18T13:46:33.113Z,19.15
2022-10-18T13:49:15.164Z,29.67
2022-10-18T13:51:52.185Z,32.58
2022-10-18T13:54:37.522Z,24.63
2022-10-18T13:57:23.299Z,22.52
2022-10-18T13:59:53.790Z,18.45
2022-10-18T14:02:59.408Z,28.80
2022-10-18T14:05:49.237Z,26.90
2022-10-18T14:08:40.281Z,25.90
2022-10-18T14:11:33.491Z,21.65
2022-10-18T14:14:00.439Z,24.45
2022-10-18T14:16:36.707Z,28.33
2022-10-18T14:19:33.647Z,26.77
2022-10-18T14:22:25.163Z,24.15
2022-10-18T14:24:58.784Z,20.75
2022-10-18T14:27:33.320Z,23.52
2022-10-18T14:30:20.646Z,24.13
2022-10-18T14:32:52.154Z,23.48
2022-10-18T14:35:32.635Z,22.63
2022-10-18T14:38:01.045Z,28.55
2022-10-18T14:40:36.178Z,37.38
2022-10-18T14:43:19.888Z,28.55
2022-10-18T14:45:47.078Z,26.85
2022-10-18T14:48:17.046Z,25.52
2022-10-18T14:50:47.372Z,25.65
2022-10-18T14:53:22.065Z,33.20
2022-10-18T14:56:00.931Z,20.77
2022-10-18T14:58:28.485Z,31.33
2022-10-18T15:00:55.549Z,30.90
2022-10-18T15:03:23.431Z,34.88
2022-10-18T15:06:02.443Z,25.75
2022-10-18T15:08:41.161Z,30.15
2022-10-18T15:11:11.921Z,32.33
2022-10-18T15:13:54.752Z,26.85
2022-10-18T15:16:26.876Z,25.63
2022-10-18T15:19:03.488Z,28.67
2022-10-18T15:21:31.269Z,31.90
2022-10-18T15:24:21.813Z,37.28
2022-10-18T15:26:50.226Z,33.58
2022-10-18T15:29:20.043Z,31.80
2022-10-18T15:31:49.762Z,31.50
2022-10-18T15:34:26.138Z,31.48
2022-10-18T15:36:55.753Z,29.70
2022-10-18T15:39:25.928Z,42.38
2022-10-18T15:41:58.748Z,35.58
2022-10-18T15:44:31.734Z,30.98
2022-10-18T15:47:14.155Z,33.50
2022-10-18T15:49:44.368Z,33.22
2022-10-18T15:52:46.724Z,34.03
2022-10-18T15:55:31.923Z,33.17
2022-10-18T15:58:32.173Z,32.22
2022-10-18T16:01:01.371Z,36.15
2022-10-18T16:03:28.839Z,33.17
2022-10-18T16:06:04.120Z,34.25
2022-10-18T16:08:40.666Z,31.60
2022-10-18T16:11:14.248Z,35.15
2022-10-18T16:13:41.915Z,32.40
2022-10-18T16:16:18.832Z,33.55
2022-10-18T16:18:45.851Z,32.42
2022-10-18T16:21:23.377Z,32.03
2022-10-18T16:23:51.136Z,31.40
2022-10-18T16:26:19.915Z,34.30
2022-10-18T16:28:48.276Z,35.00
2022-10-18T16:31:21.482Z,37.33
2022-10-18T16:33:49.190Z,34.15
2022-10-18T16:36:21.575Z,37.05
2022-10-18T16:38:49.295Z,35.80
2022-10-18T16:41:16.904Z,32.60
2022-10-18T16:43:45.618Z,33.80
2022-10-18T16:46:21.667Z,34.97
2022-10-18T16:48:51.154Z,36.58
2022-10-18T16:51:18.315Z,38.50
2022-10-18T16:53:45.531Z,35.47
2022-10-18T16:56:20.014Z,36.28
2022-10-18T16:58:47.671Z,36.25
2022-10-18T17:01:18.753Z,33.22
2022-10-18T17:03:47.684Z,31.17
2022-10-18T17:06:28.432Z,30.15
2022-10-18T17:08:56.869Z,33.30
2022-10-18T17:11:27.459Z,31.50
2022-10-18T17:13:55.541Z,39.42
2022-10-18T17:16:32.406Z,37.92
2022-10-18T17:19:02.792Z,31.30
2022-10-18T17:21:31.629Z,30.38
2022-10-18T17:24:03.802Z,31.95
2022-10-18T17:26:34.457Z,38.17
2022-10-18T17:29:08.521Z,40.72
2022-10-18T17:31:36.873Z,33.47
2022-10-18T17:34:05.319Z,32.85
2022-10-18T17:36:34.339Z,33.65
2022-10-18T17:39:02.813Z,38.22
2022-10-18T17:41:30.977Z,33.40
2022-10-18T17:43:58.848Z,35.58
2022-10-18T17:46:27.399Z,35.38
2022-10-18T17:48:57.020Z,32.63
2022-10-18T17:51:28.715Z,33.15
2022-10-18T17:53:58.932Z,39.08
2022-10-18T17:56:33.473Z,39.80
2022-10-18T17:59:05.066Z,36.15
2022-10-18T18:01:33.440Z,34.65
2022-10-18T18:04:03.016Z,39.28
2022-10-18T18:06:35.458Z,37.05
2022-10-18T18:09:14.327Z,38.92
2022-10-18T18:11:45.594Z,38.85
2022-10-18T18:14:14.768Z,42.55
2022-10-18T18:16:46.836Z,39.97
2022-10-18T18:19:16.482Z,39.75
2022-10-18T18:21:46.198Z,51.13
2022-10-18T18:24:14.421Z,39.08
2022-10-18T18:26:44.502Z,34.45
2022-10-18T18:29:14.032Z,42.42
2022-10-18T18:31:44.012Z,44.78
2022-10-18T18:34:13.092Z,43.28
2022-10-18T18:36:41.606Z,39.33
2022-10-18T18:39:16.834Z,45.47
2022-10-18T18:41:46.141Z,37.97
2022-10-18T18:44:16.584Z,37.35
2022-10-18T18:46:46.715Z,37.03
2022-10-18T18:49:16.930Z,34.72
2022-10-18T18:51:45.714Z,38.80
2022-10-18T18:54:15.759Z,44.00
2022-10-18T18:56:44.471Z,44.05
2022-10-18T18:59:14.782Z,37.55
2022-10-18T19:01:46.714Z,42.13
2022-10-18T19:04:14.769Z,35.40
2022-10-18T19:06:48.405Z,36.60
2022-10-18T19:09:23.125Z,35.95
2022-10-18T19:11:59.268Z,36.35
2022-10-18T19:17:02.098Z,35.42
2022-10-18T19:19:31.224Z,35.85
2022-10-18T19:22:02.166Z,38.63
2022-10-18T19:24:33.273Z,37.83
2022-10-18T19:27:05.239Z,34.33
2022-10-18T19:29:37.100Z,34.90
2022-10-18T19:32:08.143Z,36.08
2022-10-18T19:34:36.625Z,31.58
2022-10-18T19:37:09.936Z,33.60
2022-10-18T19:39:38.817Z,29.52
2022-10-18T19:42:10.837Z,33.97
2022-10-18T19:44:40.204Z,38.88
2022-10-18T19:47:12.369Z,44.25
2022-10-18T19:49:43.113Z,44.25
2022-10-18T19:52:12.715Z,32.63
2022-10-18T19:54:40.645Z,28.45
2022-10-18T19:57:09.781Z,27.98
2022-10-18T19:59:38.254Z,26.42
2022-10-18T20:02:06.450Z,25.67
2022-10-18T20:04:35.696Z,25.92
2022-10-18T20:07:03.367Z,21.75
2022-10-18T20:09:31.054Z,20.63
2022-10-18T20:11:58.914Z,24.15
2022-10-18T20:14:27.149Z,22.55
2022-10-18T20:16:55.476Z,24.08
2022-10-18T20:19:25.891Z,23.40
2022-10-18T20:21:57.967Z,28.23
2022-10-18T20:24:25.313Z,21.98
2022-10-18T20:29:25.563Z,31.95
2022-10-18T20:31:55.566Z,24.10
2022-10-18T20:34:25.955Z,21.77
2022-10-18T20:36:56.310Z,24.02
2022-10-18T20:39:23.365Z,25.30
2022-10-18T20:41:52.811Z,26.27
2022-10-18T20:44:22.835Z,26.83
2022-10-18T20:46:49.995Z,23.02
2022-10-18T20:49:17.208Z,27.48
2022-10-18T20:51:44.974Z,27.83
2022-10-18T20:54:12.342Z,29.30
2022-10-18T20:56:39.848Z,30.13
2022-10-18T20:59:10.029Z,27.42
2022-10-18T21:01:39.149Z,29.90
2022-10-18T21:04:09.191Z,31.17
2022-10-18T21:06:42.588Z,26.65
2022-10-18T21:09:22.017Z,29.20
2022-10-18T21:11:51.539Z,24.02
2022-10-18T21:14:21.309Z,27.27
2022-10-18T21:16:49.652Z,25.45
2022-10-18T21:19:26.002Z,25.08
2022-10-18T21:21:57.716Z,22.48
2022-10-18T21:24:25.586Z,25.38
2022-10-18T21:26:55.733Z,22.77
2022-10-18T21:29:27.061Z,25.67
2022-10-18T21:31:55.963Z,21.05
2022-10-18T21:34:23.356Z,23.80
2022-10-18T21:36:52.859Z,20.48
2022-10-18T21:41:57.069Z,19.20
2022-10-18T21:44:24.535Z,21.77
2022-10-18T21:46:51.837Z,21.60
2022-10-18T21:49:18.868Z,17.67
2022-10-18T21:51:46.140Z,20.40
2022-10-18T21:54:16.945Z,18.13
2022-10-18T21:56:44.637Z,16.55
2022-10-18T21:59:13.091Z,13.00
2022-10-18T22:01:40.762Z,15.77
2022-10-18T22:04:20.844Z,13.20
2022-10-18T22:06:51.043Z,13.15
2022-10-18T22:09:18.812Z,14.95
2022-10-18T22:11:49.746Z,16.27
2022-10-18T22:14:17.116Z,15.52
2022-10-18T22:16:44.213Z,19.15
2022-10-18T22:19:11.559Z,17.73
2022-10-18T22:21:38.783Z,17.08
2022-10-18T22:24:07.586Z,16.60
2022-10-18T22:26:40.690Z,19.15
2022-10-18T22:29:16.003Z,20.33
2022-10-18T22:34:15.802Z,19.17
2022-10-18T22:36:43.155Z,22.17
2022-10-18T22:39:11.429Z,21.48
2022-10-18T22:41:38.657Z,20.90
2022-10-18T22:44:05.939Z,27.30
2022-10-18T22:46:33.290Z,30.42
2022-10-18T22:49:00.317Z,27.95
2022-10-18T22:51:30.136Z,26.50
2022-10-18T22:53:59.445Z,28.17
2022-10-18T22:56:29.180Z,28.80
2022-10-18T22:58:56.348Z,24.08
2022-10-18T23:01:24.173Z,25.40
2022-10-18T23:03:55.022Z,23.95
2022-10-18T23:06:27.612Z,19.98
2022-10-18T23:08:56.699Z,22.20
2022-10-18T23:11:25.388Z,20.27
2022-10-18T23:13:52.964Z,17.65
2022-10-18T23:16:20.764Z,17.50
2022-10-18T23:18:52.700Z,25.10
2022-10-18T23:21:20.772Z,19.75
2022-10-18T23:23:47.764Z,18.77
2022-10-18T23:26:18.266Z,17.42
2022-10-18T23:28:50.534Z,20.05
2022-10-18T23:31:26.218Z,17.42
2022-10-18T23:33:55.110Z,24.17
2022-10-18T23:36:23.249Z,20.13
2022-10-18T23:38:51.027Z,20.52
2022-10-18T23:41:18.509Z,17.10
2022-10-18T23:43:46.353Z,17.70
2022-10-18T23:46:15.370Z,17.58
2022-10-18T23:48:42.840Z,19.65
2022-10-18T23:51:13.250Z,17.80
2022-10-18T23:53:43.300Z,18.80
2022-10-18T23:56:13.505Z,19.25
2022-10-18T23:58:41.096Z,21.02
